createdAt,value
2023-03-06T00:00:56.769Z,60.53
2023-03-06T00:03:27.722Z,60.53
2023-03-06T00:05:57.493Z,60.72
2023-03-06T00:08:26.640Z,60.58
2023-03-06T00:10:54.929Z,60.33
2023-03-06T00:13:22.560Z,60.42
2023-03-06T00:15:50.415Z,60.85
2023-03-06T00:18:17.671Z,60.80
2023-03-06T00:20:45.304Z,60.49
2023-03-06T00:23:13.071Z,61.04
2023-03-06T00:25:45.294Z,60.75
2023-03-06T00:28:14.917Z,60.61
2023-03-06T00:30:43.150Z,60.54
2023-03-06T00:33:10.623Z,60.36
2023-03-06T00:35:42.016Z,60.48
2023-03-06T00:38:12.456Z,60.37
2023-03-06T00:40:39.981Z,61.16
2023-03-06T00:43:07.217Z,61.27
2023-03-06T00:45:34.550Z,60.83
2023-03-06T00:48:01.621Z,60.74
2023-03-06T00:50:28.869Z,61.11
2023-03-06T00:52:55.913Z,60.81
2023-03-06T00:55:23.298Z,60.80
2023-03-06T00:57:50.394Z,60.41
2023-03-06T01:00:18.413Z,60.73
2023-03-06T01:02:45.319Z,60.48
2023-03-06T01:05:14.514Z,60.18
2023-03-06T01:07:41.526Z,60.61
2023-03-06T01:10:10.690Z,60.83
2023-03-06T01:12:37.767Z,60.48
2023-03-06T01:15:06.994Z,60.93
2023-03-06T01:17:33.960Z,60.93
2023-03-06T01:20:01.666Z,60.86
2023-03-06T01:22:28.655Z,60.29
2023-03-06T01:24:55.923Z,60.34
2023-03-06T01:27:22.876Z,60.56
2023-03-06T01:29:50.037Z,60.42
2023-03-06T01:32:17.038Z,60.16
2023-03-06T01:34:44.367Z,60.52
2023-03-06T01:37:11.530Z,60.41
2023-03-06T01:39:38.751Z,60.76
2023-03-06T01:42:06.005Z,60.61
2023-03-06T01:44:33.475Z,60.69
2023-03-06T01:47:02.387Z,60.46
2023-03-06T01:49:36.740Z,60.75
2023-03-06T01:52:14.577Z,60.89
2023-03-06T01:54:59.199Z,60.54
2023-03-06T01:57:34.046Z,60.77
2023-03-06T02:00:14.726Z,60.78
2023-03-06T02:02:47.690Z,60.79
2023-03-06T02:05:14.999Z,60.95
2023-03-06T02:07:44.926Z,60.78
2023-03-06T02:10:13.276Z,60.53
2023-03-06T02:12:43.782Z,60.51
2023-03-06T02:15:14.904Z,60.61
2023-03-06T02:17:44.932Z,60.42
2023-03-06T02:20:21.209Z,60.54
2023-03-06T02:23:14.873Z,60.51
2023-03-06T02:25:48.480Z,60.45
2023-03-06T02:28:21.621Z,60.68
2023-03-06T02:30:52.333Z,60.62
2023-03-06T02:33:24.888Z,60.82
2023-03-06T02:35:58.962Z,60.70
2023-03-06T02:38:34.452Z,60.92
2023-03-06T02:41:06.911Z,60.52
2023-03-06T02:43:40.027Z,60.97
2023-03-06T02:46:07.913Z,61.14
2023-03-06T02:48:34.905Z,60.86
2023-03-06T02:51:02.095Z,60.78
2023-03-06T02:53:28.987Z,60.89
2023-03-06T02:55:56.237Z,61.18
2023-03-06T02:58:23.301Z,60.87
2023-03-06T03:00:51.072Z,60.72
2023-03-06T03:03:18.776Z,60.70
2023-03-06T03:05:45.922Z,60.84
2023-03-06T03:08:12.936Z,61.12
2023-03-06T03:10:40.221Z,60.87
2023-03-06T03:13:07.337Z,60.83
2023-03-06T03:15:34.653Z,61.20
2023-03-06T03:18:01.578Z,61.02
2023-03-06T03:20:28.830Z,60.87
2023-03-06T03:22:56.452Z,61.16
2023-03-06T03:25:26.352Z,61.01
2023-03-06T03:27:53.767Z,61.12
2023-03-06T03:30:21.135Z,61.10
2023-03-06T03:32:48.092Z,61.16
2023-03-06T03:35:15.320Z,61.36
2023-03-06T03:37:42.374Z,61.14
2023-03-06T03:40:10.816Z,61.19
2023-03-06T03:42:37.908Z,61.09
2023-03-06T03:45:05.678Z,61.50
2023-03-06T03:47:32.703Z,61.14
2023-03-06T03:49:59.855Z,61.07
2023-03-06T03:52:26.923Z,61.16
2023-03-06T03:54:54.224Z,61.11
2023-03-06T03:57:21.272Z,60.66
2023-03-06T03:59:48.460Z,60.93
2023-03-06T04:02:15.653Z,61.02
2023-03-06T04:04:43.348Z,61.15
2023-03-06T04:07:10.436Z,61.25
2023-03-06T04:09:37.736Z,61.67
2023-03-06T04:12:06.461Z,60.85
2023-03-06T04:14:34.279Z,60.78
2023-03-06T04:17:01.228Z,61.08
2023-03-06T04:19:28.536Z,61.19
2023-03-06T04:21:55.457Z,60.75
2023-03-06T04:24:22.636Z,60.39
2023-03-06T04:26:49.550Z,61.10
2023-03-06T04:29:16.970Z,61.36
2023-03-06T04:31:43.915Z,61.12
2023-03-06T04:34:11.281Z,61.30
2023-03-06T04:36:38.703Z,61.29
2023-03-06T04:39:05.942Z,60.92
2023-03-06T04:41:33.800Z,61.66
2023-03-06T04:44:01.120Z,61.42
2023-03-06T04:46:28.074Z,61.38
2023-03-06T04:48:55.303Z,60.71
2023-03-06T04:51:22.295Z,60.92
2023-03-06T04:53:49.671Z,61.25
2023-03-06T04:56:16.736Z,61.24
2023-03-06T04:58:45.177Z,61.37
2023-03-06T05:01:12.902Z,61.17
2023-03-06T05:03:40.313Z,61.18
2023-03-06T05:06:07.655Z,61.36
2023-03-06T05:08:35.186Z,60.91
2023-03-06T05:11:02.572Z,62.08
2023-03-06T05:13:29.937Z,61.48
2023-03-06T05:16:04.037Z,61.21
2023-03-06T05:18:32.766Z,61.33
2023-03-06T05:21:00.195Z,61.46
2023-03-06T05:23:29.678Z,61.41
2023-03-06T05:25:58.259Z,61.33
2023-03-06T05:28:26.536Z,60.82
2023-03-06T05:30:53.622Z,60.81
2023-03-06T05:33:20.820Z,60.74
2023-03-06T05:35:49.009Z,60.54
2023-03-06T05:38:17.695Z,60.70
2023-03-06T05:40:45.897Z,60.59
2023-03-06T05:43:13.290Z,60.85
2023-03-06T05:45:41.307Z,60.76
2023-03-06T05:48:09.311Z,61.13
2023-03-06T05:50:36.296Z,61.13
2023-03-06T05:53:03.859Z,61.10
2023-03-06T05:55:31.206Z,61.04
2023-03-06T05:57:58.477Z,60.97
2023-03-06T06:00:25.802Z,60.63
2023-03-06T06:02:54.457Z,61.09
2023-03-06T06:05:21.404Z,61.12
2023-03-06T06:07:48.686Z,60.78
2023-03-06T06:10:15.976Z,60.59
2023-03-06T06:12:43.368Z,60.34
2023-03-06T06:15:10.764Z,60.61
2023-03-06T06:17:38.029Z,60.40
2023-03-06T06:20:05.657Z,60.47
2023-03-06T06:22:37.988Z,60.39
2023-03-06T06:25:06.727Z,60.28
2023-03-06T06:27:34.394Z,60.12
2023-03-06T06:30:01.374Z,60.62
2023-03-06T06:32:28.766Z,60.20
2023-03-06T06:34:55.906Z,59.87
2023-03-06T06:37:23.417Z,60.07
2023-03-06T06:39:50.889Z,59.82
2023-03-06T06:42:31.460Z,59.41
2023-03-06T06:45:05.386Z,59.35
2023-03-06T06:47:34.344Z,59.48
2023-03-06T06:50:01.492Z,59.72
2023-03-06T06:52:28.808Z,59.62
2023-03-06T06:54:55.830Z,59.63
2023-03-06T06:57:23.037Z,59.54
2023-03-06T06:59:52.392Z,59.90
2023-03-06T07:02:21.293Z,59.87
2023-03-06T07:05:02.942Z,60.23
2023-03-06T07:07:37.343Z,59.90
2023-03-06T07:10:11.967Z,59.99
2023-03-06T07:12:39.370Z,60.18
2023-03-06T07:15:08.236Z,60.02
2023-03-06T07:17:35.893Z,59.86
2023-03-06T07:20:04.624Z,59.60
2023-03-06T07:22:41.431Z,59.58
2023-03-06T07:25:12.691Z,59.54
2023-03-06T07:27:40.062Z,59.74
2023-03-06T07:30:08.363Z,59.61
2023-03-06T07:32:36.037Z,59.20
2023-03-06T07:35:19.019Z,58.73
2023-03-06T07:37:47.152Z,58.48
2023-03-06T07:40:14.563Z,58.65
2023-03-06T07:42:41.806Z,58.72
2023-03-06T07:45:18.031Z,58.60
2023-03-06T07:47:46.345Z,58.93
2023-03-06T07:50:13.658Z,58.46
2023-03-06T07:52:40.955Z,57.68
2023-03-06T07:55:09.708Z,58.49
2023-03-06T07:57:38.684Z,58.04
2023-03-06T08:00:10.471Z,58.38
2023-03-06T08:02:37.770Z,58.18
2023-03-06T08:05:06.317Z,58.33
2023-03-06T08:07:33.836Z,58.14
2023-03-06T08:10:01.154Z,58.60
2023-03-06T08:12:28.555Z,58.37
2023-03-06T08:14:55.561Z,58.31
2023-03-06T08:17:22.973Z,58.07
2023-03-06T08:19:50.155Z,58.71
2023-03-06T08:22:17.455Z,58.44
2023-03-06T08:24:44.469Z,58.44
2023-03-06T08:27:11.696Z,58.93
2023-03-06T08:29:38.752Z,58.58
2023-03-06T08:32:06.420Z,58.71
2023-03-06T08:34:33.435Z,58.46
2023-03-06T08:37:00.590Z,58.67
2023-03-06T08:39:27.521Z,58.57
2023-03-06T08:41:54.751Z,58.61
2023-03-06T08:44:21.698Z,58.20
2023-03-06T08:46:49.005Z,58.47
2023-03-06T08:49:15.914Z,58.47
2023-03-06T08:51:43.315Z,58.06
2023-03-06T08:54:13.371Z,57.92
2023-03-06T08:56:40.784Z,58.37
2023-03-06T08:59:09.443Z,57.85
2023-03-06T09:01:38.476Z,57.67
2023-03-06T09:04:09.934Z,57.45
2023-03-06T09:06:41.422Z,57.59
2023-03-06T09:09:09.539Z,57.22
2023-03-06T09:11:37.422Z,57.30
2023-03-06T09:14:05.652Z,57.05
2023-03-06T09:16:33.561Z,57.25
2023-03-06T09:19:00.651Z,56.57
2023-03-06T09:21:28.740Z,56.37
2023-03-06T09:23:56.213Z,56.55
2023-03-06T09:26:32.803Z,56.65
2023-03-06T09:29:07.651Z,56.51
2023-03-06T09:31:35.261Z,56.69
2023-03-06T09:34:02.228Z,56.53
2023-03-06T09:36:30.394Z,55.97
2023-03-06T09:38:57.443Z,56.19
2023-03-06T09:41:27.848Z,55.84
2023-03-06T09:44:13.526Z,56.13
2023-03-06T09:47:21.545Z,55.71
2023-03-06T09:50:32.755Z,55.39
2023-03-06T09:53:27.517Z,55.15
2023-03-06T09:56:23.511Z,55.30
2023-03-06T09:58:58.270Z,54.57
2023-03-06T10:01:31.677Z,54.52
2023-03-06T10:04:38.818Z,54.36
2023-03-06T10:07:42.708Z,53.80
2023-03-06T10:10:22.466Z,53.77
2023-03-06T10:13:19.595Z,53.85
2023-03-06T10:15:49.928Z,53.86
2023-03-06T10:18:17.133Z,53.51
2023-03-06T10:21:07.387Z,53.63
2023-03-06T10:24:09.521Z,53.46
2023-03-06T10:26:59.531Z,53.81
2023-03-06T10:30:02.833Z,53.33
2023-03-06T10:32:55.217Z,53.26
2023-03-06T10:35:36.864Z,53.72
2023-03-06T10:38:27.057Z,55.16
2023-03-06T10:41:12.469Z,55.68
2023-03-06T10:43:46.008Z,56.32
2023-03-06T10:46:32.056Z,55.94
2023-03-06T10:49:24.333Z,56.60
2023-03-06T10:52:16.446Z,55.96
2023-03-06T10:54:45.672Z,56.22
2023-03-06T10:57:24.934Z,55.80
2023-03-06T11:00:05.305Z,55.79
2023-03-06T11:02:38.661Z,55.70
2023-03-06T11:05:19.989Z,55.96
2023-03-06T11:08:01.185Z,56.03
2023-03-06T11:10:31.106Z,55.97
2023-03-06T11:13:08.574Z,55.91
2023-03-06T11:15:36.323Z,56.53
2023-03-06T11:18:31.038Z,56.30
2023-03-06T11:20:58.495Z,56.21
2023-03-06T11:23:43.724Z,56.21
2023-03-06T11:26:16.878Z,55.81
2023-03-06T11:29:07.679Z,56.24
2023-03-06T11:31:56.976Z,56.56
2023-03-06T11:35:35.907Z,56.29
2023-03-06T11:38:16.005Z,56.16
2023-03-06T11:40:55.908Z,56.27
2023-03-06T11:43:49.683Z,56.37
2023-03-06T11:46:48.684Z,56.17
2023-03-06T11:49:32.206Z,56.34
2023-03-06T11:52:10.292Z,56.53
2023-03-06T11:54:37.621Z,56.37
2023-03-06T11:57:35.294Z,56.04
2023-03-06T12:00:22.963Z,55.52
2023-03-06T12:03:14.627Z,55.57
2023-03-06T12:06:23.195Z,55.22
2023-03-06T12:09:23.328Z,55.69
2023-03-06T12:12:07.339Z,55.63
2023-03-06T12:15:12.633Z,54.67
2023-03-06T12:17:48.656Z,54.63
2023-03-06T12:20:49.454Z,54.46
2023-03-06T12:24:10.742Z,54.19
2023-03-06T12:27:08.477Z,53.14
2023-03-06T12:30:24.781Z,52.56
2023-03-06T12:33:13.029Z,52.38
2023-03-06T12:35:53.869Z,51.60
2023-03-06T12:38:45.986Z,51.40
2023-03-06T12:41:35.595Z,49.85
2023-03-06T12:44:16.496Z,48.95
2023-03-06T12:47:02.402Z,48.88
2023-03-06T12:49:38.687Z,48.68
2023-03-06T12:52:09.796Z,48.32
2023-03-06T12:54:41.196Z,48.63
2023-03-06T12:57:10.079Z,48.13
2023-03-06T12:59:50.011Z,48.08
2023-03-06T13:02:54.819Z,48.14
2023-03-06T13:05:38.389Z,48.16
2023-03-06T13:08:46.548Z,47.69
2023-03-06T13:11:27.788Z,48.02
2023-03-06T13:13:55.407Z,47.93
2023-03-06T13:16:31.669Z,48.46
2023-03-06T13:19:16.160Z,48.83
2023-03-06T13:21:56.195Z,49.70
2023-03-06T13:24:32.739Z,50.58
2023-03-06T13:27:12.364Z,50.66
2023-03-06T13:29:39.466Z,50.98
2023-03-06T13:32:27.909Z,50.96
2023-03-06T13:34:55.345Z,51.03
2023-03-06T13:37:25.050Z,50.18
2023-03-06T13:39:55.276Z,50.37
2023-03-06T13:42:57.775Z,50.00
2023-03-06T13:45:42.036Z,49.38
2023-03-06T13:48:45.729Z,49.49
2023-03-06T13:51:27.905Z,48.91
2023-03-06T13:54:09.350Z,48.78
2023-03-06T13:56:39.493Z,49.13
2023-03-06T13:59:30.734Z,49.75
2023-03-06T14:02:47.803Z,50.73
2023-03-06T14:05:18.007Z,51.03
2023-03-06T14:08:09.179Z,51.17
2023-03-06T14:10:38.951Z,51.45
2023-03-06T14:13:17.515Z,51.58
2023-03-06T14:15:50.354Z,50.96
2023-03-06T14:18:40.175Z,50.24
2023-03-06T14:21:13.793Z,49.66
2023-03-06T14:23:47.038Z,49.88
2023-03-06T14:26:29.723Z,49.62
2023-03-06T14:29:01.475Z,50.09
2023-03-06T14:31:33.571Z,50.35
2023-03-06T14:34:23.188Z,49.95
2023-03-06T14:36:54.710Z,50.21
2023-03-06T14:39:36.265Z,50.41
2023-03-06T14:42:25.461Z,49.92
2023-03-06T14:45:05.643Z,49.63
2023-03-06T14:47:37.340Z,49.64
2023-03-06T14:50:28.613Z,49.29
2023-03-06T14:53:29.407Z,49.21
2023-03-06T14:56:06.298Z,50.26
2023-03-06T14:59:08.827Z,50.55
2023-03-06T15:01:45.694Z,51.06
2023-03-06T15:05:09.287Z,51.44
2023-03-06T15:07:37.433Z,51.01
2023-03-06T15:10:10.516Z,51.53
2023-03-06T15:12:38.924Z,53.02
2023-03-06T15:15:10.488Z,53.48
2023-03-06T15:17:44.190Z,54.94
2023-03-06T15:20:42.020Z,55.24
2023-03-06T15:23:34.059Z,56.08
2023-03-06T15:26:19.085Z,56.60
2023-03-06T15:29:12.923Z,57.28
2023-03-06T15:31:45.743Z,58.05
2023-03-06T15:34:12.956Z,58.27
2023-03-06T15:36:51.480Z,58.41
2023-03-06T15:39:39.991Z,58.66
2023-03-06T15:42:29.295Z,58.82
2023-03-06T15:45:03.353Z,59.11
2023-03-06T15:47:30.546Z,59.59
2023-03-06T15:49:57.889Z,60.32
2023-03-06T15:52:25.096Z,60.89
2023-03-06T15:54:52.414Z,61.22
2023-03-06T15:57:29.454Z,62.13
2023-03-06T16:00:00.221Z,63.10
2023-03-06T16:02:27.657Z,63.32
2023-03-06T16:04:55.098Z,63.49
2023-03-06T16:07:22.343Z,63.61
2023-03-06T16:09:49.763Z,63.57
2023-03-06T16:12:20.461Z,64.21
2023-03-06T16:14:49.347Z,63.74
2023-03-06T16:17:17.691Z,63.82
2023-03-06T16:19:45.334Z,64.11
2023-03-06T16:22:12.633Z,64.11
2023-03-06T16:24:39.792Z,64.09
2023-03-06T16:27:16.016Z,63.62
2023-03-06T16:29:46.596Z,63.47
2023-03-06T16:32:15.120Z,63.70
2023-03-06T16:34:42.420Z,63.53
2023-03-06T16:37:13.892Z,64.33
2023-03-06T16:39:41.220Z,64.50
2023-03-06T16:42:08.501Z,64.32
2023-03-06T16:44:35.843Z,64.85
2023-03-06T16:47:03.169Z,65.05
2023-03-06T16:49:30.550Z,65.16
2023-03-06T16:51:57.820Z,65.38
2023-03-06T16:54:26.289Z,66.00
2023-03-06T16:56:53.386Z,65.59
2023-03-06T16:59:20.670Z,65.54
2023-03-06T17:01:47.708Z,65.38
2023-03-06T17:04:15.126Z,65.74
2023-03-06T17:06:43.262Z,65.70
2023-03-06T17:09:11.041Z,65.91
2023-03-06T17:11:43.496Z,65.63
2023-03-06T17:14:11.247Z,65.40
2023-03-06T17:16:40.572Z,65.42
2023-03-06T17:19:15.324Z,65.28
2023-03-06T17:21:44.416Z,65.24
2023-03-06T17:24:11.750Z,64.69
2023-03-06T17:26:39.218Z,65.63
2023-03-06T17:29:07.188Z,65.09
2023-03-06T17:31:35.645Z,64.80
2023-03-06T17:34:03.039Z,64.76
2023-03-06T17:36:31.920Z,64.22
2023-03-06T17:39:02.170Z,63.22
2023-03-06T17:41:30.161Z,63.74
2023-03-06T17:43:59.136Z,63.16
2023-03-06T17:46:26.567Z,62.95
2023-03-06T17:48:55.340Z,62.87
2023-03-06T17:51:22.337Z,62.84
2023-03-06T17:53:52.216Z,62.99
2023-03-06T17:56:19.410Z,63.36
2023-03-06T17:58:46.639Z,63.29
2023-03-06T18:01:23.141Z,63.10
2023-03-06T18:03:51.857Z,63.04
2023-03-06T18:06:20.787Z,63.03
2023-03-06T18:08:52.305Z,62.86
2023-03-06T18:11:20.281Z,63.77
2023-03-06T18:13:48.840Z,63.26
2023-03-06T18:16:20.587Z,63.15
2023-03-06T18:18:48.190Z,62.79
2023-03-06T18:21:16.784Z,63.26
2023-03-06T18:23:44.262Z,63.27
2023-03-06T18:26:16.729Z,62.80
2023-03-06T18:28:48.589Z,63.11
2023-03-06T18:31:23.450Z,63.05
2023-03-06T18:33:57.284Z,62.38
2023-03-06T18:36:30.411Z,62.94
2023-03-06T18:39:00.792Z,62.98
2023-03-06T18:41:28.523Z,62.60
2023-03-06T18:43:59.941Z,63.34
2023-03-06T18:46:33.082Z,62.29
2023-03-06T18:49:01.571Z,62.25
2023-03-06T18:51:29.349Z,62.64
2023-03-06T18:53:58.293Z,63.10
2023-03-06T18:56:25.473Z,62.92
2023-03-06T18:58:53.939Z,62.35
2023-03-06T19:01:22.636Z,62.58
2023-03-06T19:03:50.412Z,63.00
2023-03-06T19:06:18.209Z,62.89
2023-03-06T19:08:45.425Z,62.61
2023-03-06T19:11:16.244Z,62.40
2023-03-06T19:13:44.813Z,62.49
2023-03-06T19:16:23.269Z,62.47
2023-03-06T19:18:51.005Z,62.59
2023-03-06T19:21:21.124Z,62.19
2023-03-06T19:23:48.910Z,61.91
2023-03-06T19:26:18.821Z,62.17
2023-03-06T19:28:47.731Z,61.92
2023-03-06T19:31:21.909Z,61.89
2023-03-06T19:33:53.040Z,61.56
2023-03-06T19:36:26.500Z,61.92
2023-03-06T19:39:03.939Z,61.75
2023-03-06T19:41:30.898Z,61.67
2023-03-06T19:44:02.665Z,61.36
2023-03-06T19:46:30.007Z,61.89
2023-03-06T19:49:02.770Z,61.50
2023-03-06T19:51:30.091Z,61.37
2023-03-06T19:53:58.210Z,61.53
2023-03-06T19:56:29.067Z,61.94
2023-03-06T19:58:57.024Z,61.98
2023-03-06T20:01:27.916Z,61.42
2023-03-06T20:03:59.239Z,61.75
2023-03-06T20:06:33.460Z,61.72
2023-03-06T20:09:04.122Z,62.13
2023-03-06T20:11:31.376Z,61.76
2023-03-06T20:14:01.716Z,61.97
2023-03-06T20:16:30.259Z,61.52
2023-03-06T20:19:00.775Z,61.63
2023-03-06T20:21:31.246Z,61.24
2023-03-06T20:23:59.670Z,61.75
2023-03-06T20:26:29.630Z,60.98
2023-03-06T20:28:58.451Z,61.24
2023-03-06T20:31:29.367Z,60.96
2023-03-06T20:33:59.400Z,60.68
2023-03-06T20:36:31.388Z,60.58
2023-03-06T20:39:10.186Z,60.87
2023-03-06T20:41:37.892Z,60.37
2023-03-06T20:44:08.780Z,61.09
2023-03-06T20:46:36.729Z,60.58
2023-03-06T20:49:05.492Z,60.48
2023-03-06T20:52:18.908Z,60.50
2023-03-06T20:54:46.611Z,60.93
2023-03-06T20:57:14.221Z,60.62
2023-03-06T20:59:44.161Z,60.96
2023-03-06T21:02:12.108Z,61.24
2023-03-06T21:04:41.104Z,61.39
2023-03-06T21:07:08.456Z,60.62
2023-03-06T21:09:37.743Z,61.46
2023-03-06T21:12:06.359Z,61.64
2023-03-06T21:14:33.871Z,61.58
2023-03-06T21:17:01.368Z,61.60
2023-03-06T21:19:29.037Z,61.35
2023-03-06T21:21:56.128Z,61.33
2023-03-06T21:24:23.906Z,61.55
2023-03-06T21:26:52.090Z,61.53
2023-03-06T21:29:19.654Z,61.26
2023-03-06T21:31:46.592Z,61.36
2023-03-06T21:34:13.788Z,61.14
2023-03-06T21:36:41.194Z,61.36
2023-03-06T21:39:08.550Z,61.46
2023-03-06T21:41:35.813Z,61.17
2023-03-06T21:44:06.026Z,61.06
2023-03-06T21:46:34.161Z,60.97
2023-03-06T21:49:04.550Z,60.75
2023-03-06T21:51:32.099Z,61.01
2023-03-06T21:53:59.463Z,61.31
2023-03-06T21:56:28.564Z,60.49
2023-03-06T21:58:58.258Z,60.67
2023-03-06T22:01:28.969Z,60.45
2023-03-06T22:03:58.322Z,60.48
2023-03-06T22:06:29.550Z,60.38
2023-03-06T22:08:59.637Z,60.62
2023-03-06T22:11:31.266Z,60.48
2023-03-06T22:13:58.784Z,60.57
2023-03-06T22:16:25.876Z,60.59
2023-03-06T22:18:53.214Z,60.62
2023-03-06T22:21:22.888Z,60.30
2023-03-06T22:23:59.455Z,60.80
2023-03-06T22:26:28.990Z,60.90
2023-03-06T22:28:56.526Z,61.32
2023-03-06T22:31:27.197Z,61.41
2023-03-06T22:33:57.030Z,61.92
2023-03-06T22:36:25.160Z,62.15
2023-03-06T22:39:04.407Z,62.29
2023-03-06T22:41:31.926Z,61.98
2023-03-06T22:44:02.280Z,62.53
2023-03-06T22:46:30.479Z,62.42
2023-03-06T22:49:00.234Z,62.09
2023-03-06T22:51:29.779Z,62.11
2023-03-06T22:53:57.130Z,61.90
2023-03-06T22:56:24.913Z,61.69
2023-03-06T22:58:52.364Z,62.29
2023-03-06T23:01:26.390Z,62.28
2023-03-06T23:04:08.455Z,62.42
2023-03-06T23:06:39.946Z,62.41
2023-03-06T23:09:14.809Z,62.16
2023-03-06T23:11:42.452Z,62.19
2023-03-06T23:14:12.581Z,62.14
2023-03-06T23:16:40.161Z,62.26
2023-03-06T23:19:07.731Z,62.34
2023-03-06T23:21:35.073Z,62.68
2023-03-06T23:24:03.028Z,62.48
2023-03-06T23:26:32.017Z,62.14
2023-03-06T23:28:59.217Z,62.43
2023-03-06T23:31:30.016Z,62.20
2023-03-06T23:34:00.579Z,62.38
2023-03-06T23:36:29.641Z,62.31
2023-03-06T23:38:58.752Z,62.40
2023-03-06T23:41:26.222Z,62.51
2023-03-06T23:43:55.121Z,62.79
2023-03-06T23:46:22.974Z,63.01
2023-03-06T23:48:50.316Z,62.19
2023-03-06T23:51:20.879Z,62.63
2023-03-06T23:53:56.259Z,62.53
2023-03-06T23:56:25.133Z,62.76
2023-03-06T23:58:52.974Z,62.31
